sensor_id;sensor_type;location;lat;lon;timestamp;pressure;altitude;pressure_sealevel;temperature;humidity
68941;BME280;55982;51.476;7.552;2023-01-06T00:01:30;100054.50;;;10.23;100.00
68941;BME280;55982;51.476;7.552;2023-01-06T00:03:56;100058.00;;;10.24;100.00
68941;BME280;55982;51.476;7.552;2023-01-06T00:06:26;100050.97;;;10.24;100.00
68941;BME280;55982;51.476;7.552;2023-01-06T00:08:56;100061.44;;;10.26;100.00
68941;BME280;55982;51.476;7.552;2023-01-06T00:11:22;100049.22;;;10.25;100.00
68941;BME280;55982;51.476;7.552;2023-01-06T00:13:48;100055.22;;;10.28;100.00
68941;BME280;55982;51.476;7.552;2023-01-06T00:16:19;100050.00;;;10.28;100.00
68941;BME280;55982;51.476;7.552;2023-01-06T00:18:45;100045.63;;;10.29;100.00
68941;BME280;55982;51.476;7.552;2023-01-06T00:21:12;100058.66;;;10.30;100.00
68941;BME280;55982;51.476;7.552;2023-01-06T00:23:38;100050.00;;;10.28;100.00
68941;BME280;55982;51.476;7.552;2023-01-06T00:26:05;100030.88;;;10.26;100.00
68941;BME280;55982;51.476;7.552;2023-01-06T00:28:31;100044.94;;;10.22;100.00
68941;BME280;55982;51.476;7.552;2023-01-06T00:30:57;100038.09;;;10.18;100.00
68941;BME280;55982;51.476;7.552;2023-01-06T00:33:23;100041.59;;;10.17;100.00
68941;BME280;55982;51.476;7.552;2023-01-06T00:35:49;100038.31;;;10.09;100.00
68941;BME280;55982;51.476;7.552;2023-01-06T00:38:15;100039.28;;;10.06;100.00
68941;BME280;55982;51.476;7.552;2023-01-06T00:40:40;100031.31;;;10.11;100.00
68941;BME280;55982;51.476;7.552;2023-01-06T00:43:06;100026.16;;;10.08;100.00
68941;BME280;55982;51.476;7.552;2023-01-06T00:45:32;100028.94;;;10.02;100.00
68941;BME280;55982;51.476;7.552;2023-01-06T00:47:57;100026.22;;;10.05;100.00
68941;BME280;55982;51.476;7.552;2023-01-06T00:50:23;100021.91;;;10.04;100.00
68941;BME280;55982;51.476;7.552;2023-01-06T00:52:48;100024.44;;;10.07;100.00
68941;BME280;55982;51.476;7.552;2023-01-06T00:55:15;100015.00;;;10.01;100.00
68941;BME280;55982;51.476;7.552;2023-01-06T00:57:40;100010.53;;;10.05;100.00
68941;BME280;55982;51.476;7.552;2023-01-06T01:00:07;100008.84;;;10.04;100.00
68941;BME280;55982;51.476;7.552;2023-01-06T01:02:33;100012.28;;;10.06;100.00
68941;BME280;55982;51.476;7.552;2023-01-06T01:04:59;99997.63;;;10.00;100.00
68941;BME280;55982;51.476;7.552;2023-01-06T01:07:24;100009.66;;;10.06;100.00
68941;BME280;55982;51.476;7.552;2023-01-06T01:09:50;100006.94;;;10.09;100.00
68941;BME280;55982;51.476;7.552;2023-01-06T01:12:15;100017.50;;;10.06;100.00
68941;BME280;55982;51.476;7.552;2023-01-06T01:14:46;100017.41;;;10.09;100.00
68941;BME280;55982;51.476;7.552;2023-01-06T01:17:15;100015.63;;;10.11;100.00
68941;BME280;55982;51.476;7.552;2023-01-06T01:19:41;100014.84;;;10.07;100.00
68941;BME280;55982;51.476;7.552;2023-01-06T01:22:08;100011.31;;;10.08;100.00
68941;BME280;55982;51.476;7.552;2023-01-06T01:24:33;100019.19;;;10.07;100.00
68941;BME280;55982;51.476;7.552;2023-01-06T01:26:59;100019.06;;;10.13;100.00
68941;BME280;55982;51.476;7.552;2023-01-06T01:29:25;100020.78;;;10.14;100.00
68941;BME280;55982;51.476;7.552;2023-01-06T01:31:50;100020.78;;;10.14;100.00
68941;BME280;55982;51.476;7.552;2023-01-06T01:34:17;100013.72;;;10.18;100.00
68941;BME280;55982;51.476;7.552;2023-01-06T01:36:44;100013.66;;;10.19;100.00
68941;BME280;55982;51.476;7.552;2023-01-06T01:39:11;100013.78;;;10.16;100.00
68941;BME280;55982;51.476;7.552;2023-01-06T01:41:37;100008.53;;;10.16;100.00
68941;BME280;55982;51.476;7.552;2023-01-06T01:47:08;100000.81;;;10.11;100.00
68941;BME280;55982;51.476;7.552;2023-01-06T01:49:36;100004.28;;;10.12;100.00
68941;BME280;55982;51.476;7.552;2023-01-06T01:52:02;100006.03;;;10.11;100.00
68941;BME280;55982;51.476;7.552;2023-01-06T01:54:29;99996.44;;;10.12;100.00
68941;BME280;55982;51.476;7.552;2023-01-06T01:57:01;99998.16;;;10.13;100.00
68941;BME280;55982;51.476;7.552;2023-01-06T01:59:31;99998.09;;;10.16;100.00
68941;BME280;55982;51.476;7.552;2023-01-06T02:01:57;99999.88;;;10.14;100.00
68941;BME280;55982;51.476;7.552;2023-01-06T02:04:24;99991.94;;;10.17;100.00
68941;BME280;55982;51.476;7.552;2023-01-06T02:06:52;99998.16;;;10.13;100.00
68941;BME280;55982;51.476;7.552;2023-01-06T02:09:25;99991.22;;;10.12;100.00
68941;BME280;55982;51.476;7.552;2023-01-06T02:11:52;99995.59;;;10.11;100.00
68941;BME280;55982;51.476;7.552;2023-01-06T02:14:22;99989.31;;;10.17;100.00
68941;BME280;55982;51.476;7.552;2023-01-06T02:33:30;99968.13;;;10.26;100.00
68941;BME280;55982;51.476;7.552;2023-01-06T02:44:21;99952.25;;;10.32;100.00
68941;BME280;55982;51.476;7.552;2023-01-06T02:52:12;99949.81;;;10.28;100.00
68941;BME280;55982;51.476;7.552;2023-01-06T02:54:55;99941.00;;;10.30;100.00
68941;BME280;55982;51.476;7.552;2023-01-06T02:57:45;99947.13;;;10.29;100.00
68941;BME280;55982;51.476;7.552;2023-01-06T03:00:24;99948.84;;;10.30;100.00
68941;BME280;55982;51.476;7.552;2023-01-06T03:02:58;99931.44;;;10.29;100.00
68941;BME280;55982;51.476;7.552;2023-01-06T03:05:25;99931.34;;;10.32;100.00
68941;BME280;55982;51.476;7.552;2023-01-06T03:07:52;99944.47;;;10.31;100.00
68941;BME280;55982;51.476;7.552;2023-01-06T03:10:21;99934.88;;;10.31;100.00
68941;BME280;55982;51.476;7.552;2023-01-06T03:12:59;99929.72;;;10.28;100.00
68941;BME280;55982;51.476;7.552;2023-01-06T03:15:26;99938.38;;;10.30;100.00
68941;BME280;55982;51.476;7.552;2023-01-06T03:17:52;99934.88;;;10.31;100.00
68941;BME280;55982;51.476;7.552;2023-01-06T03:20:18;99931.44;;;10.29;100.00
68941;BME280;55982;51.476;7.552;2023-01-06T03:22:43;99927.09;;;10.30;100.00
68941;BME280;55982;51.476;7.552;2023-01-06T03:25:10;99920.88;;;10.32;100.00
68941;BME280;55982;51.476;7.552;2023-01-06T03:27:35;99926.22;;;10.29;100.00
68941;BME280;55982;51.476;7.552;2023-01-06T03:30:03;99921.81;;;10.31;100.00
68941;BME280;55982;51.476;7.552;2023-01-06T03:37:59;99922.81;;;10.27;100.00
68941;BME280;55982;51.476;7.552;2023-01-06T03:40:35;99923.75;;;10.25;100.00
68941;BME280;55982;51.476;7.552;2023-01-06T03:48:23;99919.19;;;10.31;100.00
68941;BME280;55982;51.476;7.552;2023-01-06T03:51:04;99915.75;;;10.29;100.00
68941;BME280;55982;51.476;7.552;2023-01-06T03:53:39;99919.25;;;10.28;100.00
68941;BME280;55982;51.476;7.552;2023-01-06T03:56:46;99923.66;;;10.28;100.00
68941;BME280;55982;51.476;7.552;2023-01-06T03:59:17;99915.84;;;10.26;100.00
68941;BME280;55982;51.476;7.552;2023-01-06T04:01:44;99915.84;;;10.26;100.00
68941;BME280;55982;51.476;7.552;2023-01-06T04:04:11;99915.09;;;10.23;100.00
68941;BME280;55982;51.476;7.552;2023-01-06T04:06:37;99913.19;;;10.28;100.00
68941;BME280;55982;51.476;7.552;2023-01-06T04:09:02;99905.31;;;10.29;100.00
68941;BME280;55982;51.476;7.552;2023-01-06T04:11:27;99898.34;;;10.28;100.00
68941;BME280;55982;51.476;7.552;2023-01-06T04:14:11;99903.50;;;10.31;100.00
68941;BME280;55982;51.476;7.552;2023-01-06T04:16:37;99899.09;;;10.32;100.00
68941;BME280;55982;51.476;7.552;2023-01-06T04:19:02;99907.88;;;10.31;100.00
68941;BME280;55982;51.476;7.552;2023-01-06T04:21:28;99898.34;;;10.28;100.00
68941;BME280;55982;51.476;7.552;2023-01-06T04:23:53;99863.38;;;10.32;100.00
68941;BME280;55982;51.476;7.552;2023-01-06T04:26:18;99887.81;;;10.31;100.00
68941;BME280;55982;51.476;7.552;2023-01-06T04:28:44;99887.72;;;10.34;100.00
68941;BME280;55982;51.476;7.552;2023-01-06T04:31:09;99887.88;;;10.28;100.00
68941;BME280;55982;51.476;7.552;2023-01-06T04:33:35;99880.03;;;10.30;100.00
68941;BME280;55982;51.476;7.552;2023-01-06T04:36:01;99884.38;;;10.29;100.00
68941;BME280;55982;51.476;7.552;2023-01-06T04:38:26;99877.44;;;10.28;100.00
68941;BME280;55982;51.476;7.552;2023-01-06T04:40:52;99876.63;;;10.26;100.00
68941;BME280;55982;51.476;7.552;2023-01-06T04:43:17;99871.25;;;10.31;100.00
68941;BME280;55982;51.476;7.552;2023-01-06T04:45:43;99872.13;;;10.31;100.00
68941;BME280;55982;51.476;7.552;2023-01-06T04:48:09;99863.56;;;10.26;100.00
68941;BME280;55982;51.476;7.552;2023-01-06T04:50:35;99861.94;;;10.22;100.00
68941;BME280;55982;51.476;7.552;2023-01-06T04:53:02;99847.06;;;10.24;100.00
68941;BME280;55982;51.476;7.552;2023-01-06T04:55:27;99855.81;;;10.23;100.00
68941;BME280;55982;51.476;7.552;2023-01-06T04:57:53;99861.84;;;10.25;100.00
68941;BME280;55982;51.476;7.552;2023-01-06T05:00:18;99856.69;;;10.22;100.00
68941;BME280;55982;51.476;7.552;2023-01-06T05:02:45;99853.19;;;10.23;100.00
68941;BME280;55982;51.476;7.552;2023-01-06T05:05:12;99852.25;;;10.26;100.00
68941;BME280;55982;51.476;7.552;2023-01-06T05:07:37;99856.63;;;10.25;100.00
68941;BME280;55982;51.476;7.552;2023-01-06T05:10:04;99840.81;;;10.28;100.00
68941;BME280;55982;51.476;7.552;2023-01-06T05:12:31;99829.53;;;10.28;100.00
68941;BME280;55982;51.476;7.552;2023-01-06T05:14:56;99827.81;;;10.27;100.00
68941;BME280;55982;51.476;7.552;2023-01-06T05:17:22;99830.47;;;10.25;100.00
68941;BME280;55982;51.476;7.552;2023-01-06T05:19:47;99814.78;;;10.25;100.00
68941;BME280;55982;51.476;7.552;2023-01-06T05:22:12;99825.25;;;10.25;100.00
68941;BME280;55982;51.476;7.552;2023-01-06T05:24:38;99833.97;;;10.24;100.00
68941;BME280;55982;51.476;7.552;2023-01-06T05:27:03;99820.03;;;10.25;100.00
68941;BME280;55982;51.476;7.552;2023-01-06T05:29:29;99830.34;;;10.30;100.00
68941;BME280;55982;51.476;7.552;2023-01-06T05:31:55;99835.59;;;10.28;100.00
68941;BME280;55982;51.476;7.552;2023-01-06T05:34:20;99824.25;;;10.29;100.00
68941;BME280;55982;51.476;7.552;2023-01-06T05:36:45;99828.66;;;10.27;100.00
68941;BME280;55982;51.476;7.552;2023-01-06T05:39:11;99818.09;;;10.30;100.00
68941;BME280;55982;51.476;7.552;2023-01-06T05:41:36;99833.72;;;10.33;100.00
68941;BME280;55982;51.476;7.552;2023-01-06T05:44:01;99820.63;;;10.33;100.00
68941;BME280;55982;51.476;7.552;2023-01-06T05:46:29;99837.31;;;10.29;100.00
68941;BME280;55982;51.476;7.552;2023-01-06T05:48:55;99830.28;;;10.31;100.00
68941;BME280;55982;51.476;7.552;2023-01-06T05:51:21;99818.09;;;10.30;100.00
68941;BME280;55982;51.476;7.552;2023-01-06T05:53:47;99816.50;;;10.26;100.00
68941;BME280;55982;51.476;7.552;2023-01-06T05:56:17;99828.66;;;10.27;100.00
68941;BME280;55982;51.476;7.552;2023-01-06T05:58:53;99833.78;;;10.30;100.00
68941;BME280;55982;51.476;7.552;2023-01-06T06:01:19;99826.06;;;10.27;100.00
68941;BME280;55982;51.476;7.552;2023-01-06T06:03:45;99839.06;;;10.29;100.00
68941;BME280;55982;51.476;7.552;2023-01-06T06:06:11;99835.59;;;10.28;100.00
68941;BME280;55982;51.476;7.552;2023-01-06T06:08:36;99823.44;;;10.27;100.00
68941;BME280;55982;51.476;7.552;2023-01-06T06:11:09;99830.47;;;10.25;100.00
68941;BME280;55982;51.476;7.552;2023-01-06T06:13:35;99828.75;;;10.24;100.00
68941;BME280;55982;51.476;7.552;2023-01-06T06:16:09;99827.06;;;10.23;100.00
68941;BME280;55982;51.476;7.552;2023-01-06T06:18:36;99830.56;;;10.22;100.00
68941;BME280;55982;51.476;7.552;2023-01-06T06:21:16;99837.81;;;10.14;100.00
68941;BME280;55982;51.476;7.552;2023-01-06T06:23:42;99841.31;;;10.13;100.00
68941;BME280;55982;51.476;7.552;2023-01-06T06:26:08;99835.09;;;10.17;100.00
68941;BME280;55982;51.476;7.552;2023-01-06T06:28:35;99830.66;;;10.19;100.00
68941;BME280;55982;51.476;7.552;2023-01-06T06:31:08;99832.34;;;10.22;100.00
68941;BME280;55982;51.476;7.552;2023-01-06T06:33:34;99840.13;;;10.23;100.00
68941;BME280;55982;51.476;7.552;2023-01-06T06:36:00;99845.31;;;10.25;100.00
68941;BME280;55982;51.476;7.552;2023-01-06T06:38:26;99830.56;;;10.22;100.00
68941;BME280;55982;51.476;7.552;2023-01-06T06:40:52;99826.94;;;10.26;100.00
68941;BME280;55982;51.476;7.552;2023-01-06T06:43:17;99816.50;;;10.26;100.00
68941;BME280;55982;51.476;7.552;2023-01-06T06:45:43;99815.53;;;10.29;100.00
68941;BME280;55982;51.476;7.552;2023-01-06T06:48:09;99817.41;;;10.25;100.00
68941;BME280;55982;51.476;7.552;2023-01-06T06:50:34;99813.19;;;10.21;100.00
68941;BME280;55982;51.476;7.552;2023-01-06T06:53:00;99821.91;;;10.20;100.00
68941;BME280;55982;51.476;7.552;2023-01-06T06:55:25;99818.41;;;10.21;100.00
68941;BME280;55982;51.476;7.552;2023-01-06T06:57:50;99813.03;;;10.26;100.00
68941;BME280;55982;51.476;7.552;2023-01-06T07:00:16;99816.59;;;10.23;100.00
68941;BME280;55982;51.476;7.552;2023-01-06T07:02:41;99827.81;;;10.27;100.00
68941;BME280;55982;51.476;7.552;2023-01-06T07:05:07;99823.44;;;10.27;100.00
68941;BME280;55982;51.476;7.552;2023-01-06T07:07:32;99823.44;;;10.27;100.00
68941;BME280;55982;51.476;7.552;2023-01-06T07:09:58;99823.53;;;10.24;100.00
68941;BME280;55982;51.476;7.552;2023-01-06T07:12:23;99823.44;;;10.27;100.00
68941;BME280;55982;51.476;7.552;2023-01-06T07:14:48;99818.41;;;10.21;100.00
68941;BME280;55982;51.476;7.552;2023-01-06T07:17:13;99809.19;;;10.09;100.00
68941;BME280;55982;51.476;7.552;2023-01-06T07:19:39;99818.84;;;10.06;100.00
68941;BME280;55982;51.476;7.552;2023-01-06T07:22:04;99820.59;;;10.05;100.00
68941;BME280;55982;51.476;7.552;2023-01-06T07:24:30;99813.72;;;10.03;100.00
68941;BME280;55982;51.476;7.552;2023-01-06T07:26:55;99813.72;;;10.03;100.00
68941;BME280;55982;51.476;7.552;2023-01-06T07:29:20;99801.63;;;10.00;100.00
68941;BME280;55982;51.476;7.552;2023-01-06T07:31:46;99805.16;;;9.98;100.00
68941;BME280;55982;51.476;7.552;2023-01-06T07:34:11;99806.88;;;9.99;100.00
68941;BME280;55982;51.476;7.552;2023-01-06T07:36:37;99805.16;;;9.98;100.00
68941;BME280;55982;51.476;7.552;2023-01-06T07:39:02;99792.22;;;9.93;100.00
68941;BME280;55982;51.476;7.552;2023-01-06T07:41:27;99805.53;;;9.86;100.00
68941;BME280;55982;51.476;7.552;2023-01-06T07:43:54;99809.41;;;9.73;100.00
68941;BME280;55982;51.476;7.552;2023-01-06T07:46:20;99811.41;;;9.65;100.00
68941;BME280;55982;51.476;7.552;2023-01-06T07:48:45;99812.94;;;9.72;100.00
68941;BME280;55982;51.476;7.552;2023-01-06T07:51:10;99801.59;;;9.73;100.00
68941;BME280;55982;51.476;7.552;2023-01-06T07:53:36;99791.84;;;9.78;100.00
68941;BME280;55982;51.476;7.552;2023-01-06T07:56:01;99798.69;;;9.82;100.00
68941;BME280;55982;51.476;7.552;2023-01-06T07:58:26;99800.41;;;9.83;100.00
68941;BME280;55982;51.476;7.552;2023-01-06T08:00:52;99801.06;;;9.89;100.00
68941;BME280;55982;51.476;7.552;2023-01-06T08:03:17;99787.81;;;9.95;100.00
68941;BME280;55982;51.476;7.552;2023-01-06T08:05:43;99791.16;;;10.00;100.00
68941;BME280;55982;51.476;7.552;2023-01-06T08:08:09;99795.47;;;10.01;100.00
68941;BME280;55982;51.476;7.552;2023-01-06T08:10:38;99797.94;;;10.06;100.00
68941;BME280;55982;51.476;7.552;2023-01-06T08:13:04;99801.28;;;10.11;100.00
68941;BME280;55982;51.476;7.552;2023-01-06T08:15:29;99807.38;;;10.11;100.00
68941;BME280;55982;51.476;7.552;2023-01-06T08:17:55;99802.22;;;10.10;100.00
68941;BME280;55982;51.476;7.552;2023-01-06T08:20:20;99796.06;;;10.11;100.00
68941;BME280;55982;51.476;7.552;2023-01-06T08:22:46;99807.44;;;10.10;100.00
68941;BME280;55982;51.476;7.552;2023-01-06T08:25:11;99804.72;;;10.13;100.00
68941;BME280;55982;51.476;7.552;2023-01-06T08:27:37;99805.38;;;10.20;100.00
68941;BME280;55982;51.476;7.552;2023-01-06T08:30:03;99809.66;;;10.22;100.00
68941;BME280;55982;51.476;7.552;2023-01-06T08:32:28;99818.41;;;10.21;100.00
68941;BME280;55982;51.476;7.552;2023-01-06T08:34:54;99819.28;;;10.20;100.00
68941;BME280;55982;51.476;7.552;2023-01-06T08:37:19;99814.78;;;10.25;100.00
68941;BME280;55982;51.476;7.552;2023-01-06T08:39:45;99819.91;;;10.28;100.00
68941;BME280;55982;51.476;7.552;2023-01-06T08:42:11;99826.81;;;10.31;100.00
68941;BME280;55982;51.476;7.552;2023-01-06T08:44:36;99824.31;;;10.28;100.00
68941;BME280;55982;51.476;7.552;2023-01-06T08:47:02;99822.59;;;10.27;100.00
68941;BME280;55982;51.476;7.552;2023-01-06T08:49:27;99832.09;;;10.29;100.00
68941;BME280;55982;51.476;7.552;2023-01-06T08:51:52;99830.94;;;10.38;100.00
68941;BME280;55982;51.476;7.552;2023-01-06T08:54:18;99828.94;;;10.46;100.00
68941;BME280;55982;51.476;7.552;2023-01-06T08:56:43;99843.75;;;10.45;100.00
68941;BME280;55982;51.476;7.552;2023-01-06T08:59:12;99850.09;;;10.38;100.00
68941;BME280;55982;51.476;7.552;2023-01-06T09:01:38;99854.91;;;10.24;100.00
68941;BME280;55982;51.476;7.552;2023-01-06T09:04:05;99854.53;;;10.07;100.00
68941;BME280;55982;51.476;7.552;2023-01-06T09:06:31;99866.19;;;9.97;100.00
68941;BME280;55982;51.476;7.552;2023-01-06T09:08:57;99860.16;;;9.95;100.00
68941;BME280;55982;51.476;7.552;2023-01-06T09:11:23;99876.91;;;9.88;100.00
68941;BME280;55982;51.476;7.552;2023-01-06T09:13:49;99871.84;;;9.82;100.00
68941;BME280;55982;51.476;7.552;2023-01-06T09:16:15;99869.97;;;9.87;100.00
68941;BME280;55982;51.476;7.552;2023-01-06T09:18:41;99869.97;;;9.87;100.00
68941;BME280;55982;51.476;7.552;2023-01-06T09:21:12;99860.56;;;9.81;100.00
68941;BME280;55982;51.476;7.552;2023-01-06T09:23:38;99877.34;;;9.73;100.00
68941;BME280;55982;51.476;7.552;2023-01-06T09:26:03;99882.50;;;9.74;100.00
68941;BME280;55982;51.476;7.552;2023-01-06T09:28:30;99879.06;;;9.74;100.00
68941;BME280;55982;51.476;7.552;2023-01-06T09:30:56;99882.56;;;9.73;100.00
68941;BME280;55982;51.476;7.552;2023-01-06T09:33:22;99899.97;;;9.74;100.00
68941;BME280;55982;51.476;7.552;2023-01-06T09:35:47;99897.25;;;9.77;100.00
68941;BME280;55982;51.476;7.552;2023-01-06T09:38:13;99897.16;;;9.80;100.00
68941;BME280;55982;51.476;7.552;2023-01-06T09:44:03;99909.97;;;9.89;100.00
68941;BME280;55982;51.476;7.552;2023-01-06T09:46:33;99898.75;;;9.85;100.00
68941;BME280;55982;51.476;7.552;2023-01-06T09:51:45;99901.84;;;9.98;100.00
68941;BME280;55982;51.476;7.552;2023-01-06T09:56:44;99910.91;;;10.17;100.00
68941;BME280;55982;51.476;7.552;2023-01-06T09:59:46;99905.25;;;10.31;100.00
68941;BME280;55982;51.476;7.552;2023-01-06T10:02:26;99908.44;;;10.40;100.00
68941;BME280;55982;51.476;7.552;2023-01-06T10:04:53;99907.69;;;10.37;100.00
68941;BME280;55982;51.476;7.552;2023-01-06T10:10:15;99910.53;;;10.29;100.00
68941;BME280;55982;51.476;7.552;2023-01-06T10:12:55;99929.84;;;10.25;100.00
68941;BME280;55982;51.476;7.552;2023-01-06T10:18:37;99924.78;;;10.19;100.00
68941;BME280;55982;51.476;7.552;2023-01-06T10:26:33;99916.56;;;10.02;100.00
68941;BME280;55982;51.476;7.552;2023-01-06T10:29:11;99920.16;;;9.98;100.00
68941;BME280;55982;51.476;7.552;2023-01-06T10:31:41;99924.50;;;9.97;100.00
68941;BME280;55982;51.476;7.552;2023-01-06T10:34:22;99930.72;;;9.95;100.00
68941;BME280;55982;51.476;7.552;2023-01-06T10:37:13;99925.38;;;9.98;100.00
68941;BME280;55982;51.476;7.552;2023-01-06T10:39:47;99919.06;;;10.05;100.00
68941;BME280;55982;51.476;7.552;2023-01-06T10:42:24;99912.84;;;10.09;100.00
68941;BME280;55982;51.476;7.552;2023-01-06T10:45:12;99914.44;;;10.16;100.00
68941;BME280;55982;51.476;7.552;2023-01-06T10:47:40;99914.31;;;10.19;100.00
68941;BME280;55982;51.476;7.552;2023-01-06T10:50:06;99907.28;;;10.21;100.00
68941;BME280;55982;51.476;7.552;2023-01-06T10:52:32;99905.78;;;10.14;100.00
68941;BME280;55982;51.476;7.552;2023-01-06T10:55:03;99913.63;;;10.14;100.00
68941;BME280;55982;51.476;7.552;2023-01-06T10:57:34;99902.38;;;10.09;100.00
68941;BME280;55982;51.476;7.552;2023-01-06T11:00:17;99916.13;;;10.17;100.00
68941;BME280;55982;51.476;7.552;2023-01-06T11:02:49;99921.34;;;10.17;100.00
68941;BME280;55982;51.476;7.552;2023-01-06T11:05:24;99917.75;;;10.21;100.00
68941;BME280;55982;51.476;7.552;2023-01-06T11:10:35;99920.91;;;10.60;100.00
68941;BME280;55982;51.476;7.552;2023-01-06T11:13:04;99917.03;;;10.97;100.00
68941;BME280;55982;51.476;7.552;2023-01-06T11:15:35;99919.94;;;11.15;100.00
68941;BME280;55982;51.476;7.552;2023-01-06T11:18:03;99905.22;;;11.12;100.00
68941;BME280;55982;51.476;7.552;2023-01-06T11:20:32;99907.78;;;11.14;100.00
68941;BME280;55982;51.476;7.552;2023-01-06T11:23:20;99911.41;;;11.10;100.00
68941;BME280;55982;51.476;7.552;2023-01-06T11:26:17;99908.03;;;11.06;100.00
68941;BME280;55982;51.476;7.552;2023-01-06T11:28:45;99911.78;;;10.97;100.00
68941;BME280;55982;51.476;7.552;2023-01-06T11:33:54;99916.31;;;11.19;100.00
68941;BME280;55982;51.476;7.552;2023-01-06T11:36:23;99914.09;;;11.33;100.00
68941;BME280;55982;51.476;7.552;2023-01-06T11:39:12;99908.25;;;11.25;100.00
68941;BME280;55982;51.476;7.552;2023-01-06T11:41:46;99906.63;;;11.21;100.00
68941;BME280;55982;51.476;7.552;2023-01-06T11:44:35;99912.81;;;11.20;100.00
68941;BME280;55982;51.476;7.552;2023-01-06T11:47:11;99919.53;;;11.27;100.00
68941;BME280;55982;51.476;7.552;2023-01-06T11:49:50;99930.22;;;11.45;100.00
68941;BME280;55982;51.476;7.552;2023-01-06T11:54:42;99925.41;;;11.58;100.00
68941;BME280;55982;51.476;7.552;2023-01-06T11:59:49;99928.94;;;11.57;100.00
68941;BME280;55982;51.476;7.552;2023-01-06T12:02:26;99923.53;;;11.61;100.00
68941;BME280;55982;51.476;7.552;2023-01-06T12:04:54;99932.09;;;11.68;100.00
68941;BME280;55982;51.476;7.552;2023-01-06T12:07:28;99936.75;;;11.58;100.00
68941;BME280;55982;51.476;7.552;2023-01-06T12:10:00;99928.66;;;11.66;100.00
68941;BME280;55982;51.476;7.552;2023-01-06T12:12:27;99932.06;;;11.91;100.00
68941;BME280;55982;51.476;7.552;2023-01-06T12:14:53;99928.69;;;11.89;100.00
68941;BME280;55982;51.476;7.552;2023-01-06T12:17:30;99926.81;;;11.92;100.00
68941;BME280;55982;51.476;7.552;2023-01-06T12:20:11;99921.34;;;11.74;100.00
68941;BME280;55982;51.476;7.552;2023-01-06T12:22:46;99919.44;;;11.79;100.00
68941;BME280;55982;51.476;7.552;2023-01-06T12:27:57;99920.81;;;11.40;100.00
68941;BME280;55982;51.476;7.552;2023-01-06T12:32:58;99927.66;;;11.44;100.00
68941;BME280;55982;51.476;7.552;2023-01-06T12:35:27;99923.53;;;11.61;100.00
68941;BME280;55982;51.476;7.552;2023-01-06T12:38:06;99925.22;;;11.64;100.00
68941;BME280;55982;51.476;7.552;2023-01-06T12:40:42;99918.22;;;11.63;100.00
68941;BME280;55982;51.476;7.552;2023-01-06T12:43:14;99926.38;;;11.55;100.00
68941;BME280;55982;51.476;7.552;2023-01-06T12:51:00;99922.44;;;11.68;100.00
68941;BME280;55982;51.476;7.552;2023-01-06T12:53:36;99923.91;;;11.51;100.00
68941;BME280;55982;51.476;7.552;2023-01-06T13:01:30;99931.28;;;11.64;100.00
68941;BME280;55982;51.476;7.552;2023-01-06T13:09:56;99924.34;;;11.88;100.00
68941;BME280;55982;51.476;7.552;2023-01-06T13:17:52;99914.59;;;11.91;100.00
68941;BME280;55982;51.476;7.552;2023-01-06T13:20:30;99917.63;;;11.81;100.00
68941;BME280;55982;51.476;7.552;2023-01-06T13:32:09;99914.81;;;11.61;100.00
68941;BME280;55982;51.476;7.552;2023-01-06T13:37:32;99906.63;;;11.71;100.00
68941;BME280;55982;51.476;7.552;2023-01-06T13:42:52;99900.50;;;11.71;100.00
68941;BME280;55982;51.476;7.552;2023-01-06T13:45:29;99904.78;;;11.73;100.00
68941;BME280;55982;51.476;7.552;2023-01-06T13:47:57;99899.00;;;11.64;100.00
68941;BME280;55982;51.476;7.552;2023-01-06T13:50:25;99895.66;;;11.59;100.00
68941;BME280;55982;51.476;7.552;2023-01-06T13:52:50;99908.69;;;11.62;100.00
68941;BME280;55982;51.476;7.552;2023-01-06T13:55:28;99913.94;;;11.60;100.00
68941;BME280;55982;51.476;7.552;2023-01-06T13:57:54;99917.84;;;11.49;100.00
68941;BME280;55982;51.476;7.552;2023-01-06T14:00:25;99906.03;;;11.39;100.00
68941;BME280;55982;51.476;7.552;2023-01-06T14:07:50;99917.97;;;11.46;100.00
68941;BME280;55982;51.476;7.552;2023-01-06T14:10:31;99920.75;;;11.41;100.00
68941;BME280;55982;51.476;7.552;2023-01-06T14:12:58;99918.66;;;11.51;100.00
68941;BME280;55982;51.476;7.552;2023-01-06T14:15:32;99916.84;;;11.53;100.00
68941;BME280;55982;51.476;7.552;2023-01-06T14:18:00;99916.63;;;11.59;100.00
68941;BME280;55982;51.476;7.552;2023-01-06T14:20:31;99909.50;;;11.62;100.00
68941;BME280;55982;51.476;7.552;2023-01-06T14:23:22;99902.63;;;11.60;100.00
68941;BME280;55982;51.476;7.552;2023-01-06T14:25:51;99923.41;;;11.66;100.00
68941;BME280;55982;51.476;7.552;2023-01-06T14:30:43;99920.19;;;11.58;100.00
68941;BME280;55982;51.476;7.552;2023-01-06T14:33:32;99925.50;;;11.55;100.00
68941;BME280;55982;51.476;7.552;2023-01-06T14:36:09;99929.06;;;11.54;100.00
68941;BME280;55982;51.476;7.552;2023-01-06T14:38:47;99930.19;;;11.47;100.00
68941;BME280;55982;51.476;7.552;2023-01-06T14:41:21;99928.88;;;11.34;100.00
68941;BME280;55982;51.476;7.552;2023-01-06T14:44:46;99934.09;;;11.35;100.00
68941;BME280;55982;51.476;7.552;2023-01-06T14:47:14;99912.69;;;11.23;100.00
68941;BME280;55982;51.476;7.552;2023-01-06T14:49:58;99917.19;;;11.19;100.00
68941;BME280;55982;51.476;7.552;2023-01-06T14:52:35;99922.19;;;11.00;100.00
68941;BME280;55982;51.476;7.552;2023-01-06T14:55:07;99926.09;;;10.87;100.00
68941;BME280;55982;51.476;7.552;2023-01-06T14:57:37;99921.28;;;10.75;100.00
68941;BME280;55982;51.476;7.552;2023-01-06T15:02:32;99928.31;;;10.73;100.00
68941;BME280;55982;51.476;7.552;2023-01-06T15:04:58;99922.97;;;10.76;100.00
68941;BME280;55982;51.476;7.552;2023-01-06T15:07:23;99937.16;;;10.69;100.00